sensor_id;sensor_type;location;lat;lon;timestamp;pressure;altitude;pressure_sealevel;temperature;humidity
75008;BME280;63554;48.940;12.050;2023-05-07T00:00:58;97359.97;;;10.64;84.42
75008;BME280;63554;48.940;12.050;2023-05-07T00:05:01;97361.63;;;10.65;84.65
75008;BME280;63554;48.940;12.050;2023-05-07T00:09:05;97351.47;;;10.61;84.54
75008;BME280;63554;48.940;12.050;2023-05-07T00:13:09;97350.66;;;10.54;84.51
75008;BME280;63554;48.940;12.050;2023-05-07T00:17:11;97359.88;;;10.46;84.59
75008;BME280;63554;48.940;12.050;2023-05-07T00:21:14;97352.47;;;10.35;85.34
75008;BME280;63554;48.940;12.050;2023-05-07T00:25:17;97363.53;;;10.33;85.43
75008;BME280;63554;48.940;12.050;2023-05-07T00:29:22;97355.25;;;10.21;85.16
75008;BME280;63554;48.940;12.050;2023-05-07T00:33:24;97348.81;;;10.16;85.33
75008;BME280;63554;48.940;12.050;2023-05-07T00:37:28;97354.22;;;10.16;85.64
75008;BME280;63554;48.940;12.050;2023-05-07T00:41:31;97349.66;;;10.16;85.67
75008;BME280;63554;48.940;12.050;2023-05-07T00:45:35;97348.63;;;10.10;85.70
75008;BME280;63554;48.940;12.050;2023-05-07T00:49:39;97347.19;;;10.08;85.63
75008;BME280;63554;48.940;12.050;2023-05-07T00:53:43;97348.69;;;10.04;85.72
75008;BME280;63554;48.940;12.050;2023-05-07T00:57:46;97353.91;;;9.99;85.66
75008;BME280;63554;48.940;12.050;2023-05-07T01:01:50;97359.09;;;9.94;85.79
75008;BME280;63554;48.940;12.050;2023-05-07T01:05:54;97355.19;;;9.89;86.68
75008;BME280;63554;48.940;12.050;2023-05-07T01:09:58;97354.16;;;9.90;86.79
75008;BME280;63554;48.940;12.050;2023-05-07T01:14:01;97357.88;;;9.89;86.84
75008;BME280;63554;48.940;12.050;2023-05-07T01:18:06;97364.75;;;9.85;86.67
75008;BME280;63554;48.940;12.050;2023-05-07T01:22:10;97374.16;;;9.83;86.96
75008;BME280;63554;48.940;12.050;2023-05-07T01:26:14;97371.03;;;9.79;86.95
75008;BME280;63554;48.940;12.050;2023-05-07T01:30:18;97365.06;;;9.70;87.04
75008;BME280;63554;48.940;12.050;2023-05-07T01:34:22;97360.28;;;9.66;87.63
75008;BME280;63554;48.940;12.050;2023-05-07T01:38:28;97363.22;;;9.64;87.74
75008;BME280;63554;48.940;12.050;2023-05-07T01:42:32;97353.84;;;9.60;87.50
75008;BME280;63554;48.940;12.050;2023-05-07T01:46:35;97354.25;;;9.64;87.67
75008;BME280;63554;48.940;12.050;2023-05-07T01:50:38;97353.84;;;9.67;87.04
75008;BME280;63554;48.940;12.050;2023-05-07T01:54:41;97361.75;;;9.62;86.43
75008;BME280;63554;48.940;12.050;2023-05-07T01:58:46;97361.56;;;9.57;86.67
75008;BME280;63554;48.940;12.050;2023-05-07T02:02:48;97354.09;;;9.52;86.76
75008;BME280;63554;48.940;12.050;2023-05-07T02:06:51;97370.09;;;9.54;86.98
75008;BME280;63554;48.940;12.050;2023-05-07T02:10:54;97349.53;;;9.53;87.01
75008;BME280;63554;48.940;12.050;2023-05-07T02:14:58;97360.97;;;9.55;86.78
75008;BME280;63554;48.940;12.050;2023-05-07T02:19:01;97359.50;;;9.52;86.70
75008;BME280;63554;48.940;12.050;2023-05-07T02:23:04;97354.75;;;9.47;86.78
75008;BME280;63554;48.940;12.050;2023-05-07T02:27:07;97356.81;;;9.45;86.98
75008;BME280;63554;48.940;12.050;2023-05-07T02:31:11;97352.44;;;9.44;87.04
75008;BME280;63554;48.940;12.050;2023-05-07T02:35:14;97358.47;;;9.46;87.00
75008;BME280;63554;48.940;12.050;2023-05-07T02:39:16;97349.34;;;9.47;87.09
75008;BME280;63554;48.940;12.050;2023-05-07T02:43:19;97344.13;;;9.46;87.04
75008;BME280;63554;48.940;12.050;2023-05-07T02:47:23;97340.63;;;9.45;87.35
75008;BME280;63554;48.940;12.050;2023-05-07T02:51:29;97355.16;;;9.51;86.94
75008;BME280;63554;48.940;12.050;2023-05-07T02:55:32;97345.81;;;9.47;86.66
75008;BME280;63554;48.940;12.050;2023-05-07T02:59:34;97349.53;;;9.46;86.89
75008;BME280;63554;48.940;12.050;2023-05-07T03:03:39;97342.66;;;9.50;86.93
75008;BME280;63554;48.940;12.050;2023-05-07T03:07:42;97343.72;;;9.49;87.03
75008;BME280;63554;48.940;12.050;2023-05-07T03:11:47;97344.75;;;9.48;86.85
75008;BME280;63554;48.940;12.050;2023-05-07T03:15:50;97343.53;;;9.44;87.01
75008;BME280;63554;48.940;12.050;2023-05-07T03:19:54;97340.63;;;9.45;87.55
75008;BME280;63554;48.940;12.050;2023-05-07T03:23:56;97341.03;;;9.42;87.68
75008;BME280;63554;48.940;12.050;2023-05-07T03:27:59;97345.81;;;9.40;87.67
75008;BME280;63554;48.940;12.050;2023-05-07T03:32:02;97339.19;;;9.43;87.91
75008;BME280;63554;48.940;12.050;2023-05-07T03:36:08;97350.16;;;9.48;87.95
75008;BME280;63554;48.940;12.050;2023-05-07T03:40:11;97348.50;;;9.40;87.99
75008;BME280;63554;48.940;12.050;2023-05-07T03:44:14;97348.09;;;9.37;88.00
75008;BME280;63554;48.940;12.050;2023-05-07T03:48:17;97354.56;;;9.36;87.65
75008;BME280;63554;48.940;12.050;2023-05-07T03:52:21;97363.94;;;9.33;87.81
75008;BME280;63554;48.940;12.050;2023-05-07T03:56:27;97369.53;;;9.32;87.53
75008;BME280;63554;48.940;12.050;2023-05-07T04:00:29;97366.63;;;9.26;87.62
75008;BME280;63554;48.940;12.050;2023-05-07T04:04:34;97371.00;;;9.27;87.66
75008;BME280;63554;48.940;12.050;2023-05-07T04:08:38;97368.91;;;9.23;87.69
75008;BME280;63554;48.940;12.050;2023-05-07T04:12:41;97384.25;;;9.29;88.03
75008;BME280;63554;48.940;12.050;2023-05-07T04:16:44;97372.63;;;9.28;88.16
75008;BME280;63554;48.940;12.050;2023-05-07T04:20:47;97377.63;;;9.32;88.38
75008;BME280;63554;48.940;12.050;2023-05-07T04:24:52;97374.72;;;9.33;88.17
75008;BME280;63554;48.940;12.050;2023-05-07T04:28:54;97378.66;;;9.37;88.26
75008;BME280;63554;48.940;12.050;2023-05-07T04:32:58;97378.66;;;9.37;88.26
75008;BME280;63554;48.940;12.050;2023-05-07T04:37:00;97380.72;;;9.42;88.00
75008;BME280;63554;48.940;12.050;2023-05-07T04:41:05;97383.63;;;9.47;88.35
75008;BME280;63554;48.940;12.050;2023-05-07T04:45:09;97378.59;;;9.50;88.32
75008;BME280;63554;48.940;12.050;2023-05-07T04:49:11;97388.16;;;9.60;88.33
75008;BME280;63554;48.940;12.050;2023-05-07T04:53:14;97389.78;;;9.67;88.34
75008;BME280;63554;48.940;12.050;2023-05-07T04:57:18;97389.53;;;9.76;88.08
75008;BME280;63554;48.940;12.050;2023-05-07T05:01:21;97398.06;;;9.86;88.07
75008;BME280;63554;48.940;12.050;2023-05-07T05:05:23;97401.75;;;9.98;87.96
75008;BME280;63554;48.940;12.050;2023-05-07T05:09:26;97406.47;;;10.09;88.04
75008;BME280;63554;48.940;12.050;2023-05-07T05:13:30;97407.25;;;10.23;87.89
75008;BME280;63554;48.940;12.050;2023-05-07T05:17:33;97413.38;;;10.51;90.23
75008;BME280;63554;48.940;12.050;2023-05-07T05:21:36;97408.44;;;10.66;88.94
75008;BME280;63554;48.940;12.050;2023-05-07T05:25:38;97405.75;;;10.66;87.21
75008;BME280;63554;48.940;12.050;2023-05-07T05:29:43;97414.03;;;10.71;86.79
75008;BME280;63554;48.940;12.050;2023-05-07T05:33:45;97411.88;;;10.80;86.90
75008;BME280;63554;48.940;12.050;2023-05-07T05:37:48;97418.28;;;10.92;86.14
75008;BME280;63554;48.940;12.050;2023-05-07T05:41:51;97427.50;;;11.10;85.52
75008;BME280;63554;48.940;12.050;2023-05-07T05:45:55;97410.09;;;11.24;85.01
75008;BME280;63554;48.940;12.050;2023-05-07T05:49:58;97408.25;;;11.43;84.88
75008;BME280;63554;48.940;12.050;2023-05-07T05:54:01;97417.66;;;11.59;84.27
75008;BME280;63554;48.940;12.050;2023-05-07T05:58:03;97411.19;;;11.78;83.64
75008;BME280;63554;48.940;12.050;2023-05-07T06:02:08;97412.28;;;11.96;83.73
75008;BME280;63554;48.940;12.050;2023-05-07T06:06:11;97417.69;;;12.14;84.25
75008;BME280;63554;48.940;12.050;2023-05-07T06:10:13;97421.31;;;12.38;83.58
75008;BME280;63554;48.940;12.050;2023-05-07T06:14:16;97429.94;;;12.65;82.53
75008;BME280;63554;48.940;12.050;2023-05-07T06:18:22;97445.72;;;12.99;81.50
75008;BME280;63554;48.940;12.050;2023-05-07T06:22:24;97429.22;;;13.24;80.25
75008;BME280;63554;48.940;12.050;2023-05-07T06:26:27;97426.69;;;13.53;79.26
75008;BME280;63554;48.940;12.050;2023-05-07T06:30:30;97436.13;;;13.62;77.15
75008;BME280;63554;48.940;12.050;2023-05-07T06:34:33;97431.97;;;13.71;77.16
75008;BME280;63554;48.940;12.050;2023-05-07T06:38:36;97442.09;;;13.99;76.03
75008;BME280;63554;48.940;12.050;2023-05-07T06:42:39;97446.56;;;14.29;76.16
75008;BME280;63554;48.940;12.050;2023-05-07T06:46:42;97450.16;;;14.58;74.68
75008;BME280;63554;48.940;12.050;2023-05-07T06:50:48;97454.75;;;14.87;73.63
75008;BME280;63554;48.940;12.050;2023-05-07T06:54:51;97453.78;;;14.93;72.18
75008;BME280;63554;48.940;12.050;2023-05-07T06:58:53;97454.59;;;14.93;73.96
75008;BME280;63554;48.940;12.050;2023-05-07T07:02:56;97445.50;;;14.88;73.50
75008;BME280;63554;48.940;12.050;2023-05-07T07:07:02;97446.94;;;15.07;72.38
75008;BME280;63554;48.940;12.050;2023-05-07T07:11:04;97453.81;;;15.27;72.46
75008;BME280;63554;48.940;12.050;2023-05-07T07:15:13;97448.84;;;15.57;71.26
75008;BME280;63554;48.940;12.050;2023-05-07T07:19:15;97440.50;;;15.81;70.77
75008;BME280;63554;48.940;12.050;2023-05-07T07:23:20;97443.53;;;15.85;69.49
75008;BME280;63554;48.940;12.050;2023-05-07T07:27:22;97452.41;;;15.75;69.55
75008;BME280;63554;48.940;12.050;2023-05-07T07:31:25;97460.31;;;15.93;70.18
75008;BME280;63554;48.940;12.050;2023-05-07T07:35:28;97455.81;;;16.04;70.09
75008;BME280;63554;48.940;12.050;2023-05-07T07:39:32;97451.38;;;16.20;68.04
75008;BME280;63554;48.940;12.050;2023-05-07T07:43:35;97448.31;;;16.38;68.09
75008;BME280;63554;48.940;12.050;2023-05-07T07:47:38;97441.53;;;16.63;63.52
75008;BME280;63554;48.940;12.050;2023-05-07T07:51:41;97438.03;;;16.95;66.58
75008;BME280;63554;48.940;12.050;2023-05-07T07:55:45;97443.94;;;17.41;64.96
75008;BME280;63554;48.940;12.050;2023-05-07T07:59:48;97445.53;;;17.05;64.70
75008;BME280;63554;48.940;12.050;2023-05-07T08:03:51;97458.84;;;16.96;65.20
75008;BME280;63554;48.940;12.050;2023-05-07T08:07:54;97455.88;;;17.62;64.05
75008;BME280;63554;48.940;12.050;2023-05-07T08:11:58;97458.50;;;17.84;61.56
75008;BME280;63554;48.940;12.050;2023-05-07T08:16:01;97460.97;;;17.86;60.93
75008;BME280;63554;48.940;12.050;2023-05-07T08:20:06;97470.94;;;17.70;60.99
75008;BME280;63554;48.940;12.050;2023-05-07T08:24:09;97482.75;;;17.38;60.62
75008;BME280;63554;48.940;12.050;2023-05-07T08:28:15;97473.31;;;17.24;62.51
75008;BME280;63554;48.940;12.050;2023-05-07T08:32:18;97479.31;;;17.20;62.96
75008;BME280;63554;48.940;12.050;2023-05-07T08:36:21;97479.34;;;17.26;61.84
75008;BME280;63554;48.940;12.050;2023-05-07T08:40:25;97476.97;;;17.34;62.85
75008;BME280;63554;48.940;12.050;2023-05-07T08:44:33;97483.50;;;17.66;62.16
75008;BME280;63554;48.940;12.050;2023-05-07T08:48:38;97481.69;;;18.14;60.26
75008;BME280;63554;48.940;12.050;2023-05-07T08:52:41;97478.34;;;18.07;60.56
75008;BME280;63554;48.940;12.050;2023-05-07T08:56:44;97471.94;;;18.44;60.72
75008;BME280;63554;48.940;12.050;2023-05-07T09:00:48;97478.03;;;18.51;59.13
75008;BME280;63554;48.940;12.050;2023-05-07T09:04:52;97475.53;;;18.49;59.87
75008;BME280;63554;48.940;12.050;2023-05-07T09:08:54;97463.75;;;18.54;59.18
75008;BME280;63554;48.940;12.050;2023-05-07T09:12:59;97464.03;;;18.47;60.85
75008;BME280;63554;48.940;12.050;2023-05-07T09:17:03;97471.44;;;18.52;60.59
75008;BME280;63554;48.940;12.050;2023-05-07T09:21:09;97462.81;;;19.01;60.92
75008;BME280;63554;48.940;12.050;2023-05-07T09:25:12;97459.56;;;19.40;60.25
75008;BME280;63554;48.940;12.050;2023-05-07T09:29:15;97464.53;;;19.79;58.46
75008;BME280;63554;48.940;12.050;2023-05-07T09:33:27;97456.50;;;20.08;56.88
75008;BME280;63554;48.940;12.050;2023-05-07T09:37:31;97462.50;;;20.31;57.49
75008;BME280;63554;48.940;12.050;2023-05-07T09:41:43;97459.72;;;20.36;56.97
75008;BME280;63554;48.940;12.050;2023-05-07T09:45:46;97452.47;;;20.66;56.68
75008;BME280;63554;48.940;12.050;2023-05-07T09:50:07;97459.28;;;20.79;56.22
75008;BME280;63554;48.940;12.050;2023-05-07T09:54:22;97451.47;;;21.01;56.90
75008;BME280;63554;48.940;12.050;2023-05-07T09:58:25;97446.06;;;21.25;55.32
75008;BME280;63554;48.940;12.050;2023-05-07T10:02:29;97457.09;;;21.25;54.63
75008;BME280;63554;48.940;12.050;2023-05-07T10:06:34;97447.34;;;21.43;55.03
75008;BME280;63554;48.940;12.050;2023-05-07T10:10:37;97450.19;;;21.23;55.75
75008;BME280;63554;48.940;12.050;2023-05-07T10:14:40;97448.16;;;21.44;54.19
75008;BME280;63554;48.940;12.050;2023-05-07T10:18:43;97451.19;;;21.77;52.02
75008;BME280;63554;48.940;12.050;2023-05-07T10:22:48;97459.75;;;22.28;50.54
75008;BME280;63554;48.940;12.050;2023-05-07T10:26:53;97455.31;;;22.76;52.74
75008;BME280;63554;48.940;12.050;2023-05-07T10:31:07;97456.19;;;22.28;51.78
75008;BME280;63554;48.940;12.050;2023-05-07T10:35:16;97451.81;;;21.98;51.60
75008;BME280;63554;48.940;12.050;2023-05-07T10:39:21;97453.03;;;22.10;50.05
75008;BME280;63554;48.940;12.050;2023-05-07T10:43:24;97444.47;;;21.59;53.18
75008;BME280;63554;48.940;12.050;2023-05-07T10:47:27;97446.06;;;21.25;54.14
75008;BME280;63554;48.940;12.050;2023-05-07T10:51:30;97444.03;;;21.02;53.23
75008;BME280;63554;48.940;12.050;2023-05-07T10:55:37;97438.47;;;21.07;53.12
75008;BME280;63554;48.940;12.050;2023-05-07T10:59:40;97442.41;;;21.35;51.48
75008;BME280;63554;48.940;12.050;2023-05-07T11:04:14;97441.47;;;21.84;52.21
75008;BME280;63554;48.940;12.050;2023-05-07T11:08:16;97437.09;;;22.07;51.31
75008;BME280;63554;48.940;12.050;2023-05-07T11:12:51;97433.00;;;21.76;50.20
75008;BME280;63554;48.940;12.050;2023-05-07T11:17:02;97442.97;;;21.32;53.09
75008;BME280;63554;48.940;12.050;2023-05-07T11:21:05;97428.84;;;21.09;54.57
75008;BME280;63554;48.940;12.050;2023-05-07T11:25:08;97425.19;;;20.80;55.11
75008;BME280;63554;48.940;12.050;2023-05-07T11:29:14;97431.53;;;20.75;56.29
75008;BME280;63554;48.940;12.050;2023-05-07T11:33:18;97420.91;;;20.53;53.60
75008;BME280;63554;48.940;12.050;2023-05-07T11:37:22;97431.06;;;21.47;53.32
75008;BME280;63554;48.940;12.050;2023-05-07T11:41:33;97420.94;;;22.68;48.15
75008;BME280;63554;48.940;12.050;2023-05-07T11:45:37;97424.91;;;23.19;47.74
75008;BME280;63554;48.940;12.050;2023-05-07T11:49:40;97414.84;;;23.94;47.32
75008;BME280;63554;48.940;12.050;2023-05-07T11:53:43;97421.91;;;24.00;44.79
75008;BME280;63554;48.940;12.050;2023-05-07T11:57:46;97424.19;;;24.25;46.74
75008;BME280;63554;48.940;12.050;2023-05-07T12:01:50;97422.94;;;24.18;44.87
75008;BME280;63554;48.940;12.050;2023-05-07T12:05:53;97415.97;;;24.34;42.66
75008;BME280;63554;48.940;12.050;2023-05-07T12:09:55;97419.25;;;24.36;42.21
75008;BME280;63554;48.940;12.050;2023-05-07T12:13:58;97417.50;;;24.40;39.36
75008;BME280;63554;48.940;12.050;2023-05-07T12:18:02;97420.28;;;24.68;38.80
75008;BME280;63554;48.940;12.050;2023-05-07T12:22:05;97408.19;;;24.22;40.38
75008;BME280;63554;48.940;12.050;2023-05-07T12:26:09;97412.38;;;24.47;42.90
75008;BME280;63554;48.940;12.050;2023-05-07T12:30:13;97410.97;;;24.64;42.27
75008;BME280;63554;48.940;12.050;2023-05-07T12:34:17;97415.34;;;23.63;43.65
75008;BME280;63554;48.940;12.050;2023-05-07T12:38:19;97409.53;;;24.39;44.73
75008;BME280;63554;48.940;12.050;2023-05-07T12:42:22;97406.28;;;24.87;41.32
75008;BME280;63554;48.940;12.050;2023-05-07T12:46:27;97398.88;;;24.96;43.29
75008;BME280;63554;48.940;12.050;2023-05-07T12:50:33;97392.78;;;24.85;42.69
75008;BME280;63554;48.940;12.050;2023-05-07T12:54:37;97389.13;;;24.62;43.47
75008;BME280;63554;48.940;12.050;2023-05-07T12:58:40;97385.72;;;24.65;41.05
75008;BME280;63554;48.940;12.050;2023-05-07T13:02:44;97385.66;;;24.01;42.91
75008;BME280;63554;48.940;12.050;2023-05-07T13:06:49;97374.69;;;24.52;42.97
75008;BME280;63554;48.940;12.050;2023-05-07T13:10:51;97380.81;;;24.99;41.68
75008;BME280;63554;48.940;12.050;2023-05-07T13:14:54;97376.06;;;25.13;41.25
75008;BME280;63554;48.940;12.050;2023-05-07T13:18:57;97369.25;;;24.46;44.18
75008;BME280;63554;48.940;12.050;2023-05-07T13:23:01;97369.16;;;23.49;44.03
75008;BME280;63554;48.940;12.050;2023-05-07T13:27:05;97362.66;;;23.73;42.96
75008;BME280;63554;48.940;12.050;2023-05-07T13:31:08;97353.16;;;24.48;42.67
75008;BME280;63554;48.940;12.050;2023-05-07T13:35:12;97353.72;;;25.10;41.22
75008;BME280;63554;48.940;12.050;2023-05-07T13:39:16;97351.47;;;25.65;40.20
75008;BME280;63554;48.940;12.050;2023-05-07T13:43:18;97349.47;;;25.89;39.08
75008;BME280;63554;48.940;12.050;2023-05-07T13:47:21;97345.88;;;26.19;38.96
75008;BME280;63554;48.940;12.050;2023-05-07T13:51:25;97349.94;;;26.22;38.65
75008;BME280;63554;48.940;12.050;2023-05-07T13:55:29;97347.28;;;26.08;37.31
75008;BME280;63554;48.940;12.050;2023-05-07T13:59:32;97341.56;;;25.73;37.02
75008;BME280;63554;48.940;12.050;2023-05-07T14:03:34;97351.34;;;25.71;37.55
75008;BME280;63554;48.940;12.050;2023-05-07T14:07:39;97346.41;;;25.59;38.32
75008;BME280;63554;48.940;12.050;2023-05-07T14:11:43;97347.34;;;25.54;38.82
75008;BME280;63554;48.940;12.050;2023-05-07T14:15:45;97352.22;;;25.26;39.48
75008;BME280;63554;48.940;12.050;2023-05-07T14:19:50;97344.75;;;25.13;40.20
75008;BME280;63554;48.940;12.050;2023-05-07T14:23:54;97346.09;;;25.15;39.46
75008;BME280;63554;48.940;12.050;2023-05-07T14:27:59;97354.84;;;24.86;38.43
75008;BME280;63554;48.940;12.050;2023-05-07T14:32:02;97352.44;;;25.16;40.23
75008;BME280;63554;48.940;12.050;2023-05-07T14:36:05;97354.31;;;24.84;38.11
75008;BME280;63554;48.940;12.050;2023-05-07T14:40:08;97354.84;;;24.86;39.86
75008;BME280;63554;48.940;12.050;2023-05-07T14:44:13;97353.94;;;24.77;39.18
75008;BME280;63554;48.940;12.050;2023-05-07T14:48:16;97358.91;;;24.89;39.13
75008;BME280;63554;48.940;12.050;2023-05-07T14:52:21;97355.94;;;24.85;39.05
75008;BME280;63554;48.940;12.050;2023-05-07T14:56:24;97348.22;;;24.59;37.85
75008;BME280;63554;48.940;12.050;2023-05-07T15:00:28;97343.59;;;24.69;37.98
75008;BME280;63554;48.940;12.050;2023-05-07T15:04:31;97345.06;;;24.66;39.16
75008;BME280;63554;48.940;12.050;2023-05-07T15:08:34;97346.53;;;24.08;40.18
75008;BME280;63554;48.940;12.050;2023-05-07T15:12:36;97339.53;;;23.69;40.44
75008;BME280;63554;48.940;12.050;2023-05-07T15:16:40;97340.44;;;23.51;41.52
75008;BME280;63554;48.940;12.050;2023-05-07T15:20:44;97354.03;;;23.47;43.35
75008;BME280;63554;48.940;12.050;2023-05-07T15:24:46;97347.19;;;23.12;44.49
75008;BME280;63554;48.940;12.050;2023-05-07T15:28:49;97348.59;;;22.90;45.36
75008;BME280;63554;48.940;12.050;2023-05-07T15:32:53;97348.25;;;22.78;45.50
75008;BME280;63554;48.940;12.050;2023-05-07T15:36:57;97347.25;;;22.49;44.65
75008;BME280;63554;48.940;12.050;2023-05-07T15:40:59;97347.47;;;22.10;45.52
75008;BME280;63554;48.940;12.050;2023-05-07T15:45:03;97364.28;;;21.89;47.24
75008;BME280;63554;48.940;12.050;2023-05-07T15:49:08;97365.69;;;21.58;48.99
75008;BME280;63554;48.940;12.050;2023-05-07T15:53:11;97361.41;;;21.41;48.74
75008;BME280;63554;48.940;12.050;2023-05-07T15:57:14;97361.84;;;21.24;48.54
75008;BME280;63554;48.940;12.050;2023-05-07T16:01:16;97371.75;;;21.25;49.95
75008;BME280;63554;48.940;12.050;2023-05-07T16:05:21;97373.81;;;20.70;49.87
75008;BME280;63554;48.940;12.050;2023-05-07T16:09:23;97378.53;;;20.59;49.92
75008;BME280;63554;48.940;12.050;2023-05-07T16:13:27;97381.72;;;20.22;50.72
75008;BME280;63554;48.940;12.050;2023-05-07T16:17:31;97379.53;;;20.19;51.28
75008;BME280;63554;48.940;12.050;2023-05-07T16:21:35;97389.22;;;20.06;51.02
75008;BME280;63554;48.940;12.050;2023-05-07T16:25:38;97390.88;;;20.02;51.66
75008;BME280;63554;48.940;12.050;2023-05-07T16:29:41;97389.81;;;19.92;51.31
75008;BME280;63554;48.940;12.050;2023-05-07T16:33:44;97386.28;;;19.82;51.63
75008;BME280;63554;48.940;12.050;2023-05-07T16:37:48;97385.69;;;19.80;51.62
75008;BME280;63554;48.940;12.050;2023-05-07T16:41:50;97388.47;;;19.59;52.62
75008;BME280;63554;48.940;12.050;2023-05-07T16:45:53;97384.38;;;19.41;52.11
75008;BME280;63554;48.940;12.050;2023-05-07T16:49:55;97387.41;;;19.29;52.88
75008;BME280;63554;48.940;12.050;2023-05-07T16:54:00;97396.75;;;19.23;52.93
75008;BME280;63554;48.940;12.050;2023-05-07T16:58:03;97396.75;;;19.18;52.82
75008;BME280;63554;48.940;12.050;2023-05-07T17:02:06;97395.63;;;19.09;53.02
75008;BME280;63554;48.940;12.050;2023-05-07T17:06:09;97396.19;;;19.01;54.46
75008;BME280;63554;48.940;12.050;2023-05-07T17:10:16;97401.41;;;18.92;54.90
75008;BME280;63554;48.940;12.050;2023-05-07T17:14:20;97401.31;;;18.71;55.37
75008;BME280;63554;48.940;12.050;2023-05-07T17:18:23;97409.78;;;18.60;55.98
75008;BME280;63554;48.940;12.050;2023-05-07T17:22:26;97414.16;;;18.45;55.80
75008;BME280;63554;48.940;12.050;2023-05-07T17:26:30;97414.59;;;18.27;56.03
75008;BME280;63554;48.940;12.050;2023-05-07T17:30:35;97421.09;;;18.05;56.28
75008;BME280;63554;48.940;12.050;2023-05-07T17:34:38;97416.84;;;17.82;56.15
75008;BME280;63554;48.940;12.050;2023-05-07T17:38:41;97423.09;;;17.72;57.27
75008;BME280;63554;48.940;12.050;2023-05-07T17:42:45;97435.03;;;17.61;57.79
75008;BME280;63554;48.940;12.050;2023-05-07T17:46:47;97435.19;;;17.44;58.11
75008;BME280;63554;48.940;12.050;2023-05-07T17:50:50;97448.31;;;17.42;57.92
75008;BME280;63554;48.940;12.050;2023-05-07T17:54:53;97442.19;;;17.30;57.85
75008;BME280;63554;48.940;12.050;2023-05-07T17:58:57;97453.25;;;17.13;58.21
75008;BME280;63554;48.940;12.050;2023-05-07T18:03:00;97457.88;;;17.07;58.61
75008;BME280;63554;48.940;12.050;2023-05-07T18:07:03;97468.13;;;16.95;58.61
75008;BME280;63554;48.940;12.050;2023-05-07T18:11:05;97469.84;;;16.79;59.21
75008;BME280;63554;48.940;12.050;2023-05-07T18:15:10;97476.66;;;16.76;59.73
75008;BME280;63554;48.940;12.050;2023-05-07T18:19:13;97473.59;;;16.73;60.05
75008;BME280;63554;48.940;12.050;2023-05-07T18:23:16;97473.75;;;16.61;60.85
75008;BME280;63554;48.940;12.050;2023-05-07T18:27:18;97475.78;;;16.49;60.88
75008;BME280;63554;48.940;12.050;2023-05-07T18:31:22;97479.59;;;16.48;61.19
75008;BME280;63554;48.940;12.050;2023-05-07T18:35:25;97493.00;;;16.27;61.19
75008;BME280;63554;48.940;12.050;2023-05-07T18:39:28;97483.69;;;16.06;61.45
75008;BME280;63554;48.940;12.050;2023-05-07T18:43:31;97488.16;;;15.95;62.57
75008;BME280;63554;48.940;12.050;2023-05-07T18:47:36;97490.84;;;15.90;62.51
75008;BME280;63554;48.940;12.050;2023-05-07T18:51:38;97490.53;;;15.87;62.61
75008;BME280;63554;48.940;12.050;2023-05-07T18:55:41;97491.53;;;15.80;63.18
75008;BME280;63554;48.940;12.050;2023-05-07T18:59:46;97503.69;;;15.73;63.08
75008;BME280;63554;48.940;12.050;2023-05-07T19:03:50;97499.69;;;15.63;63.86
75008;BME280;63554;48.940;12.050;2023-05-07T19:07:53;97512.00;;;15.49;64.49
75008;BME280;63554;48.940;12.050;2023-05-07T19:11:57;97514.72;;;15.49;64.49
75008;BME280;63554;48.940;12.050;2023-05-07T19:15:59;97517.34;;;15.44;64.26
75008;BME280;63554;48.940;12.050;2023-05-07T19:20:05;97524.16;;;15.41;64.47
75008;BME280;63554;48.940;12.050;2023-05-07T19:24:13;97522.53;;;15.29;64.51
75008;BME280;63554;48.940;12.050;2023-05-07T19:28:15;97532.50;;;15.35;64.79
75008;BME280;63554;48.940;12.050;2023-05-07T19:32:18;97528.44;;;15.37;64.69
75008;BME280;63554;48.940;12.050;2023-05-07T19:36:24;97544.13;;;15.30;65.13
75008;BME280;63554;48.940;12.050;2023-05-07T19:40:26;97540.97;;;15.21;64.74
75008;BME280;63554;48.940;12.050;2023-05-07T19:44:29;97545.50;;;15.16;64.80
75008;BME280;63554;48.940;12.050;2023-05-07T19:48:32;97554.75;;;15.15;64.14
75008;BME280;63554;48.940;12.050;2023-05-07T19:52:36;97555.88;;;15.02;64.99
75008;BME280;63554;48.940;12.050;2023-05-07T19:56:39;97555.88;;;15.02;64.51
75008;BME280;63554;48.940;12.050;2023-05-07T20:00:42;97558.38;;;15.03;64.11
75008;BME280;63554;48.940;12.050;2023-05-07T20:04:45;97566.19;;;15.00;64.37
75008;BME280;63554;48.940;12.050;2023-05-07T20:08:49;97576.00;;;15.01;64.83
75008;BME280;63554;48.940;12.050;2023-05-07T20:12:52;97572.31;;;15.07;64.46
75008;BME280;63554;48.940;12.050;2023-05-07T20:16:55;97582.16;;;15.08;64.58
75008;BME280;63554;48.940;12.050;2023-05-07T20:20:57;97581.94;;;15.10;64.19
75008;BME280;63554;48.940;12.050;2023-05-07T20:25:02;97580.22;;;14.92;64.29
75008;BME280;63554;48.940;12.050;2023-05-07T20:29:06;97578.44;;;14.86;65.16
75008;BME280;63554;48.940;12.050;2023-05-07T20:33:08;97591.84;;;14.75;65.16
75008;BME280;63554;48.940;12.050;2023-05-07T20:37:12;97576.59;;;14.74;65.29
75008;BME280;63554;48.940;12.050;2023-05-07T20:41:17;97597.53;;;14.74;65.07
75008;BME280;63554;48.940;12.050;2023-05-07T20:45:21;97598.63;;;14.73;65.02
75008;BME280;63554;48.940;12.050;2023-05-07T20:49:24;97596.13;;;14.71;64.30
75008;BME280;63554;48.940;12.050;2023-05-07T20:53:27;97607.06;;;14.59;64.70
75008;BME280;63554;48.940;12.050;2023-05-07T20:57:32;97604.09;;;14.37;65.20
75008;BME280;63554;48.940;12.050;2023-05-07T21:01:34;97608.72;;;14.37;65.62
75008;BME280;63554;48.940;12.050;2023-05-07T21:05:37;97602.41;;;14.36;65.72
75008;BME280;63554;48.940;12.050;2023-05-07T21:09:39;97609.91;;;14.29;65.20
75008;BME280;63554;48.940;12.050;2023-05-07T21:13:44;97613.44;;;14.18;65.72
75008;BME280;63554;48.940;12.050;2023-05-07T21:17:46;97614.63;;;14.10;65.79